Time,TemperatureF,DewpointF,PressureIn,WindDirection,WindDirectionDegrees,WindSpeedMPH,WindSpeedGustMPH,Humidity,HourlyPrecipIn,Conditions,Clouds,dailyrainin,SoftwareType,DateUTC
2013-03-27 00:30:00,35.0,30.0,30.12,NW,310,16.0,-999.0,81,-99.99,,,-99.99,,2013-03-27 03:00:00,
2013-03-27 00:51:00,35.0,30.0,30.12,NW,310,16.0,-999.0,81,-99.99,,,-99.99,,2013-03-27 03:21:00,
2013-03-27 01:02:00,35.0,30.0,30.12,NW,310,16.0,-999.0,81,-99.99,,,-99.99,,2013-03-27 03:32:00,
2013-03-27 01:12:00,35.0,30.0,30.12,NW,310,16.0,-999.0,81,-99.99,,,-99.99,,2013-03-27 03:42:00,
2013-03-27 01:22:00,35.0,30.0,30.12,NW,310,16.0,-999.0,81,-99.99,,,-99.99,,2013-03-27 03:52:00,
2013-03-27 03:30:00,34.0,29.0,30.09,WNW,290,5.0,-999.0,80,-99.99,,,-99.99,,2013-03-27 06:00:00,
2013-03-27 03:51:00,34.0,29.0,30.09,WNW,290,5.0,-999.0,80,-99.99,,,-99.99,,2013-03-27 06:21:00,
2013-03-27 04:01:00,34.0,29.0,30.09,WNW,290,5.0,-999.0,80,-99.99,,,-99.99,,2013-03-27 06:31:00,
2013-03-27 04:11:00,34.0,29.0,30.09,WNW,290,5.0,-999.0,80,-99.99,,,-99.99,,2013-03-27 06:41:00,
2013-03-27 04:21:00,34.0,29.0,30.09,WNW,290,5.0,-999.0,80,-99.99,,,-99.99,,2013-03-27 06:51:00,
2013-03-27 06:30:00,35.0,25.0,30.09,NW,320,7.0,-999.0,67,-99.99,,,-99.99,,2013-03-27 09:00:00,
2013-03-27 06:51:00,35.0,25.0,30.09,NW,320,7.0,-999.0,67,-99.99,,,-99.99,,2013-03-27 09:21:00,
2013-03-27 07:02:00,35.0,25.0,30.09,NW,320,7.0,-999.0,67,-99.99,,,-99.99,,2013-03-27 09:32:00,
2013-03-27 07:12:00,35.0,25.0,30.09,NW,320,7.0,-999.0,67,-99.99,,,-99.99,,2013-03-27 09:42:00,
2013-03-27 07:22:00,35.0,25.0,30.09,NW,320,7.0,-999.0,67,-99.99,,,-99.99,,2013-03-27 09:52:00,
2013-03-27 09:30:00,33.0,23.0,30.12,NNW,330,7.0,-999.0,67,-99.99,,,-99.99,,2013-03-27 12:00:00,
2013-03-27 09:52:00,33.0,23.0,30.12,NNW,330,7.0,-999.0,67,-99.99,,,-99.99,,2013-03-27 12:22:00,
2013-03-27 10:01:00,33.0,23.0,30.12,NNW,330,7.0,-999.0,67,-99.99,,,-99.99,,2013-03-27 12:31:00,
2013-03-27 10:12:00,33.0,23.0,30.12,NNW,330,7.0,-999.0,67,-99.99,,,-99.99,,2013-03-27 12:42:00,
2013-03-27 10:21:00,33.0,23.0,30.12,NNW,330,7.0,-999.0,67,-99.99,,,-99.99,,2013-03-27 12:51:00,
2013-03-27 12:30:00,35.0,24.0,30.14,NNW,330,11.0,-999.0,63,-99.99,,,-99.99,,2013-03-27 15:00:00,
2013-03-27 13:02:00,35.0,24.0,30.14,NNW,330,11.0,-999.0,63,-99.99,,,-99.99,,2013-03-27 15:32:00,
2013-03-27 13:12:00,35.0,24.0,30.14,NNW,330,11.0,-999.0,63,-99.99,,,-99.99,,2013-03-27 15:42:00,
2013-03-27 13:22:00,35.0,24.0,30.14,NNW,330,11.0,-999.0,63,-99.99,,,-99.99,,2013-03-27 15:52:00,
2013-03-27 15:30:00,35.0,26.0,30.15,WNW,290,16.0,-999.0,68,-99.99,,,-99.99,,2013-03-27 18:00:00,
2013-03-27 15:52:00,35.0,26.0,30.15,WNW,290,16.0,-999.0,68,-99.99,,,-99.99,,2013-03-27 18:22:00,
2013-03-27 16:01:00,35.0,26.0,30.15,WNW,290,16.0,-999.0,68,-99.99,,,-99.99,,2013-03-27 18:31:00,
2013-03-27 16:12:00,35.0,26.0,30.15,WNW,290,16.0,-999.0,68,-99.99,,,-99.99,,2013-03-27 18:42:00,
2013-03-27 16:21:00,35.0,26.0,30.15,WNW,290,16.0,-999.0,68,-99.99,,,-99.99,,2013-03-27 18:51:00,
2013-03-27 18:30:00,37.0,28.0,30.15,NW,320,15.0,-999.0,69,-99.99,,,-99.99,,2013-03-27 21:00:00,
2013-03-27 18:51:00,37.0,28.0,30.15,NW,320,15.0,-999.0,69,-99.99,,,-99.99,,2013-03-27 21:21:00,
2013-03-27 19:01:00,37.0,28.0,30.15,NW,320,15.0,-999.0,69,-99.99,,,-99.99,,2013-03-27 21:31:00,
2013-03-27 19:12:00,37.0,28.0,30.15,NW,320,15.0,-999.0,69,-99.99,,,-99.99,,2013-03-27 21:42:00,
2013-03-27 19:22:00,37.0,28.0,30.15,NW,320,15.0,-999.0,69,-99.99,,,-99.99,,2013-03-27 21:52:00,
2013-03-27 21:30:00,35.0,30.0,30.18,WNW,290,16.0,-999.0,82,-99.99,,,-99.99,,2013-03-28 00:00:00,
2013-03-27 21:51:00,35.0,30.0,30.18,WNW,290,16.0,-999.0,82,-99.99,,,-99.99,,2013-03-28 00:21:00,
2013-03-27 22:01:00,35.0,30.0,30.18,WNW,290,16.0,-999.0,82,-99.99,,,-99.99,,2013-03-28 00:31:00,
2013-03-27 22:11:00,35.0,30.0,30.18,WNW,290,16.0,-999.0,82,-99.99,,,-99.99,,2013-03-28 00:41:00,
2013-03-27 22:21:00,35.0,30.0,30.18,WNW,290,16.0,-999.0,82,-99.99,,,-99.99,,2013-03-28 00:51:00,